sensor_id;sensor_type;location;lat;lon;timestamp;P1;durP1;ratioP1;P2;durP2;ratioP2
20363;SDS011;10340;53.664;9.908;2023-02-01T00:00:58;14.83;;;3.80;;
20363;SDS011;10340;53.664;9.908;2023-02-01T00:03:24;11.37;;;3.13;;
20363;SDS011;10340;53.664;9.908;2023-02-01T00:05:55;10.03;;;2.63;;
20363;SDS011;10340;53.664;9.908;2023-02-01T00:08:23;16.10;;;3.60;;
20363;SDS011;10340;53.664;9.908;2023-02-01T00:10:58;10.07;;;3.37;;
20363;SDS011;10340;53.664;9.908;2023-02-01T00:13:27;11.83;;;3.67;;
20363;SDS011;10340;53.664;9.908;2023-02-01T00:16:01;10.03;;;2.90;;
20363;SDS011;10340;53.664;9.908;2023-02-01T00:18:29;17.27;;;3.10;;
20363;SDS011;10340;53.664;9.908;2023-02-01T00:20:56;16.90;;;4.53;;
20363;SDS011;10340;53.664;9.908;2023-02-01T00:23:23;15.50;;;3.87;;
20363;SDS011;10340;53.664;9.908;2023-02-01T00:25:50;15.97;;;4.17;;
20363;SDS011;10340;53.664;9.908;2023-02-01T00:28:19;16.63;;;3.17;;
20363;SDS011;10340;53.664;9.908;2023-02-01T00:30:45;21.20;;;3.83;;
20363;SDS011;10340;53.664;9.908;2023-02-01T00:33:12;16.20;;;3.57;;
20363;SDS011;10340;53.664;9.908;2023-02-01T00:35:39;23.37;;;4.23;;
20363;SDS011;10340;53.664;9.908;2023-02-01T00:38:06;14.03;;;3.57;;
20363;SDS011;10340;53.664;9.908;2023-02-01T00:40:33;12.50;;;3.80;;
20363;SDS011;10340;53.664;9.908;2023-02-01T00:43:00;10.73;;;2.90;;
20363;SDS011;10340;53.664;9.908;2023-02-01T00:45:29;14.87;;;4.00;;
20363;SDS011;10340;53.664;9.908;2023-02-01T00:47:55;14.23;;;3.20;;
20363;SDS011;10340;53.664;9.908;2023-02-01T00:50:22;13.27;;;4.40;;
20363;SDS011;10340;53.664;9.908;2023-02-01T00:52:49;17.37;;;3.77;;
20363;SDS011;10340;53.664;9.908;2023-02-01T00:55:16;15.27;;;4.20;;
20363;SDS011;10340;53.664;9.908;2023-02-01T00:57:43;16.33;;;3.90;;
20363;SDS011;10340;53.664;9.908;2023-02-01T01:00:10;14.53;;;4.10;;
20363;SDS011;10340;53.664;9.908;2023-02-01T01:02:39;17.83;;;4.73;;
20363;SDS011;10340;53.664;9.908;2023-02-01T01:05:07;15.97;;;4.60;;
20363;SDS011;10340;53.664;9.908;2023-02-01T01:07:34;20.57;;;4.03;;
20363;SDS011;10340;53.664;9.908;2023-02-01T01:10:01;17.97;;;3.90;;
20363;SDS011;10340;53.664;9.908;2023-02-01T01:12:28;21.67;;;4.67;;
20363;SDS011;10340;53.664;9.908;2023-02-01T01:14:56;19.07;;;3.60;;
20363;SDS011;10340;53.664;9.908;2023-02-01T01:17:23;14.63;;;3.97;;
20363;SDS011;10340;53.664;9.908;2023-02-01T01:19:51;21.83;;;4.57;;
20363;SDS011;10340;53.664;9.908;2023-02-01T01:22:18;16.53;;;4.17;;
20363;SDS011;10340;53.664;9.908;2023-02-01T01:24:45;13.57;;;3.70;;
20363;SDS011;10340;53.664;9.908;2023-02-01T01:27:12;22.50;;;4.67;;
20363;SDS011;10340;53.664;9.908;2023-02-01T01:29:39;12.17;;;3.60;;
20363;SDS011;10340;53.664;9.908;2023-02-01T01:32:06;25.10;;;5.37;;
20363;SDS011;10340;53.664;9.908;2023-02-01T01:34:33;18.33;;;4.43;;
20363;SDS011;10340;53.664;9.908;2023-02-01T01:37:01;19.40;;;4.37;;
20363;SDS011;10340;53.664;9.908;2023-02-01T01:39:28;16.90;;;4.27;;
20363;SDS011;10340;53.664;9.908;2023-02-01T01:41:56;17.90;;;3.93;;
20363;SDS011;10340;53.664;9.908;2023-02-01T01:47:26;15.33;;;3.90;;
20363;SDS011;10340;53.664;9.908;2023-02-01T01:49:55;15.97;;;4.03;;
20363;SDS011;10340;53.664;9.908;2023-02-01T01:52:23;19.15;;;4.57;;
20363;SDS011;10340;53.664;9.908;2023-02-01T01:54:51;15.43;;;4.07;;
20363;SDS011;10340;53.664;9.908;2023-02-01T01:57:20;19.23;;;4.33;;
20363;SDS011;10340;53.664;9.908;2023-02-01T01:59:53;22.73;;;4.47;;
20363;SDS011;10340;53.664;9.908;2023-02-01T02:02:25;18.13;;;4.60;;
20363;SDS011;10340;53.664;9.908;2023-02-01T02:04:52;15.63;;;4.57;;
20363;SDS011;10340;53.664;9.908;2023-02-01T02:07:21;20.13;;;4.33;;
20363;SDS011;10340;53.664;9.908;2023-02-01T02:09:52;17.23;;;3.97;;
20363;SDS011;10340;53.664;9.908;2023-02-01T02:12:19;22.83;;;4.60;;
20363;SDS011;10340;53.664;9.908;2023-02-01T02:14:46;16.93;;;4.57;;
20363;SDS011;10340;53.664;9.908;2023-02-01T02:17:18;20.03;;;4.33;;
20363;SDS011;10340;53.664;9.908;2023-02-01T02:23:05;17.17;;;4.27;;
20363;SDS011;10340;53.664;9.908;2023-02-01T02:26:01;20.77;;;4.90;;
20363;SDS011;10340;53.664;9.908;2023-02-01T02:31:51;21.87;;;4.97;;
20363;SDS011;10340;53.664;9.908;2023-02-01T02:34:32;23.63;;;4.80;;
20363;SDS011;10340;53.664;9.908;2023-02-01T02:37:07;20.73;;;4.63;;
20363;SDS011;10340;53.664;9.908;2023-02-01T02:39:42;18.50;;;4.43;;
20363;SDS011;10340;53.664;9.908;2023-02-01T02:42:17;13.47;;;3.87;;
20363;SDS011;10340;53.664;9.908;2023-02-01T02:45:09;18.33;;;3.88;;
20363;SDS011;10340;53.664;9.908;2023-02-01T02:48:02;20.17;;;4.40;;
20363;SDS011;10340;53.664;9.908;2023-02-01T02:50:38;19.00;;;4.80;;
20363;SDS011;10340;53.664;9.908;2023-02-01T02:53:30;18.10;;;4.13;;
20363;SDS011;10340;53.664;9.908;2023-02-01T02:56:20;17.07;;;4.00;;
20363;SDS011;10340;53.664;9.908;2023-02-01T02:59:06;17.77;;;4.13;;
20363;SDS011;10340;53.664;9.908;2023-02-01T03:01:52;12.37;;;3.97;;
20363;SDS011;10340;53.664;9.908;2023-02-01T03:04:37;15.47;;;4.10;;
20363;SDS011;10340;53.664;9.908;2023-02-01T03:07:14;15.17;;;3.67;;
20363;SDS011;10340;53.664;9.908;2023-02-01T03:10:03;13.48;;;3.97;;
20363;SDS011;10340;53.664;9.908;2023-02-01T03:12:35;16.13;;;3.80;;
20363;SDS011;10340;53.664;9.908;2023-02-01T03:15:24;17.13;;;3.87;;
20363;SDS011;10340;53.664;9.908;2023-02-01T03:17:57;17.93;;;3.97;;
20363;SDS011;10340;53.664;9.908;2023-02-01T03:20:27;12.93;;;3.17;;
20363;SDS011;10340;53.664;9.908;2023-02-01T03:22:57;14.87;;;3.50;;
20363;SDS011;10340;53.664;9.908;2023-02-01T03:25:27;15.20;;;3.47;;
20363;SDS011;10340;53.664;9.908;2023-02-01T03:27:57;15.30;;;4.07;;
20363;SDS011;10340;53.664;9.908;2023-02-01T03:30:28;14.73;;;3.33;;
20363;SDS011;10340;53.664;9.908;2023-02-01T03:32:58;15.30;;;3.83;;
20363;SDS011;10340;53.664;9.908;2023-02-01T03:35:28;15.77;;;3.77;;
20363;SDS011;10340;53.664;9.908;2023-02-01T03:38:03;16.43;;;3.03;;
20363;SDS011;10340;53.664;9.908;2023-02-01T03:40:34;8.83;;;2.90;;
20363;SDS011;10340;53.664;9.908;2023-02-01T03:43:03;12.27;;;3.00;;
20363;SDS011;10340;53.664;9.908;2023-02-01T03:45:33;13.67;;;3.90;;
20363;SDS011;10340;53.664;9.908;2023-02-01T03:48:04;19.17;;;3.30;;
20363;SDS011;10340;53.664;9.908;2023-02-01T03:50:32;10.03;;;2.53;;
20363;SDS011;10340;53.664;9.908;2023-02-01T03:53:03;14.67;;;3.50;;
20363;SDS011;10340;53.664;9.908;2023-02-01T03:55:33;12.67;;;4.03;;
20363;SDS011;10340;53.664;9.908;2023-02-01T03:58:06;12.33;;;2.80;;
20363;SDS011;10340;53.664;9.908;2023-02-01T04:00:35;12.27;;;3.93;;
20363;SDS011;10340;53.664;9.908;2023-02-01T04:03:02;14.07;;;3.53;;
20363;SDS011;10340;53.664;9.908;2023-02-01T04:05:30;14.93;;;3.50;;
20363;SDS011;10340;53.664;9.908;2023-02-01T04:07:58;9.53;;;2.57;;
20363;SDS011;10340;53.664;9.908;2023-02-01T04:10:26;17.13;;;4.10;;
20363;SDS011;10340;53.664;9.908;2023-02-01T04:12:53;9.30;;;3.37;;
20363;SDS011;10340;53.664;9.908;2023-02-01T04:15:20;11.83;;;3.13;;
20363;SDS011;10340;53.664;9.908;2023-02-01T04:17:47;10.77;;;2.77;;
20363;SDS011;10340;53.664;9.908;2023-02-01T04:20:14;11.53;;;3.33;;
20363;SDS011;10340;53.664;9.908;2023-02-01T04:22:42;16.00;;;2.73;;
20363;SDS011;10340;53.664;9.908;2023-02-01T04:25:09;17.03;;;3.43;;
20363;SDS011;10340;53.664;9.908;2023-02-01T04:27:38;10.37;;;2.77;;
20363;SDS011;10340;53.664;9.908;2023-02-01T04:30:05;15.80;;;3.87;;
20363;SDS011;10340;53.664;9.908;2023-02-01T04:32:34;13.33;;;3.97;;
20363;SDS011;10340;53.664;9.908;2023-02-01T04:35:02;13.00;;;3.23;;
20363;SDS011;10340;53.664;9.908;2023-02-01T04:37:29;16.33;;;3.60;;
20363;SDS011;10340;53.664;9.908;2023-02-01T04:39:56;15.03;;;3.10;;
20363;SDS011;10340;53.664;9.908;2023-02-01T04:42:23;9.13;;;2.67;;
20363;SDS011;10340;53.664;9.908;2023-02-01T04:44:51;11.63;;;3.13;;
20363;SDS011;10340;53.664;9.908;2023-02-01T04:47:18;9.10;;;2.37;;
20363;SDS011;10340;53.664;9.908;2023-02-01T04:49:45;7.77;;;2.80;;
20363;SDS011;10340;53.664;9.908;2023-02-01T04:52:12;8.27;;;2.27;;
20363;SDS011;10340;53.664;9.908;2023-02-01T04:54:39;6.30;;;2.40;;
20363;SDS011;10340;53.664;9.908;2023-02-01T04:57:06;10.47;;;3.47;;
20363;SDS011;10340;53.664;9.908;2023-02-01T04:59:33;10.17;;;2.20;;
20363;SDS011;10340;53.664;9.908;2023-02-01T05:02:01;5.83;;;2.27;;
20363;SDS011;10340;53.664;9.908;2023-02-01T05:04:28;8.37;;;2.27;;
20363;SDS011;10340;53.664;9.908;2023-02-01T05:06:55;8.87;;;2.40;;
20363;SDS011;10340;53.664;9.908;2023-02-01T05:09:22;8.47;;;1.97;;
20363;SDS011;10340;53.664;9.908;2023-02-01T05:11:50;6.43;;;1.83;;
20363;SDS011;10340;53.664;9.908;2023-02-01T05:14:34;4.27;;;1.40;;
20363;SDS011;10340;53.664;9.908;2023-02-01T05:17:03;7.07;;;2.20;;
20363;SDS011;10340;53.664;9.908;2023-02-01T05:19:30;2.63;;;1.47;;
20363;SDS011;10340;53.664;9.908;2023-02-01T05:21:56;4.10;;;1.27;;
20363;SDS011;10340;53.664;9.908;2023-02-01T05:24:23;2.10;;;1.20;;
20363;SDS011;10340;53.664;9.908;2023-02-01T05:26:52;2.60;;;1.10;;
20363;SDS011;10340;53.664;9.908;2023-02-01T05:29:19;4.40;;;1.00;;
20363;SDS011;10340;53.664;9.908;2023-02-01T05:31:46;5.17;;;1.10;;
20363;SDS011;10340;53.664;9.908;2023-02-01T05:34:15;4.43;;;1.00;;
20363;SDS011;10340;53.664;9.908;2023-02-01T05:36:42;3.27;;;1.80;;
20363;SDS011;10340;53.664;9.908;2023-02-01T05:39:09;1.20;;;1.00;;
20363;SDS011;10340;53.664;9.908;2023-02-01T05:41:36;2.07;;;0.90;;
20363;SDS011;10340;53.664;9.908;2023-02-01T05:44:03;3.00;;;1.40;;
20363;SDS011;10340;53.664;9.908;2023-02-01T05:46:32;3.03;;;1.20;;
20363;SDS011;10340;53.664;9.908;2023-02-01T05:48:59;4.60;;;1.10;;
20363;SDS011;10340;53.664;9.908;2023-02-01T05:51:27;2.00;;;1.10;;
20363;SDS011;10340;53.664;9.908;2023-02-01T05:53:54;3.40;;;1.30;;
20363;SDS011;10340;53.664;9.908;2023-02-01T05:56:21;3.57;;;1.20;;
20363;SDS011;10340;53.664;9.908;2023-02-01T05:58:48;1.77;;;1.10;;
20363;SDS011;10340;53.664;9.908;2023-02-01T06:01:15;1.00;;;1.00;;
20363;SDS011;10340;53.664;9.908;2023-02-01T06:03:42;2.10;;;1.10;;
20363;SDS011;10340;53.664;9.908;2023-02-01T06:06:09;3.67;;;1.20;;
20363;SDS011;10340;53.664;9.908;2023-02-01T06:08:38;1.50;;;1.00;;
20363;SDS011;10340;53.664;9.908;2023-02-01T06:11:06;1.63;;;1.00;;
20363;SDS011;10340;53.664;9.908;2023-02-01T06:13:33;2.30;;;1.30;;
20363;SDS011;10340;53.664;9.908;2023-02-01T06:16:00;3.13;;;1.30;;
20363;SDS011;10340;53.664;9.908;2023-02-01T06:18:28;2.60;;;1.03;;
20363;SDS011;10340;53.664;9.908;2023-02-01T06:20:56;4.00;;;1.40;;
20363;SDS011;10340;53.664;9.908;2023-02-01T06:23:25;4.70;;;1.60;;
20363;SDS011;10340;53.664;9.908;2023-02-01T06:25:57;5.07;;;1.20;;
20363;SDS011;10340;53.664;9.908;2023-02-01T06:28:25;2.07;;;1.10;;
20363;SDS011;10340;53.664;9.908;2023-02-01T06:30:55;3.70;;;1.67;;
20363;SDS011;10340;53.664;9.908;2023-02-01T06:33:23;2.63;;;1.80;;
20363;SDS011;10340;53.664;9.908;2023-02-01T06:35:55;3.60;;;1.93;;
20363;SDS011;10340;53.664;9.908;2023-02-01T06:38:23;4.60;;;1.50;;
20363;SDS011;10340;53.664;9.908;2023-02-01T06:40:52;6.10;;;1.90;;
20363;SDS011;10340;53.664;9.908;2023-02-01T06:43:21;4.83;;;1.77;;
20363;SDS011;10340;53.664;9.908;2023-02-01T06:45:48;11.63;;;2.30;;
20363;SDS011;10340;53.664;9.908;2023-02-01T06:48:16;10.40;;;2.77;;
20363;SDS011;10340;53.664;9.908;2023-02-01T06:50:43;11.73;;;2.13;;
20363;SDS011;10340;53.664;9.908;2023-02-01T06:53:10;9.67;;;2.50;;
20363;SDS011;10340;53.664;9.908;2023-02-01T06:55:37;10.00;;;2.60;;
20363;SDS011;10340;53.664;9.908;2023-02-01T06:58:05;12.67;;;2.97;;
20363;SDS011;10340;53.664;9.908;2023-02-01T07:00:32;10.20;;;2.80;;
20363;SDS011;10340;53.664;9.908;2023-02-01T07:03:00;9.83;;;2.60;;
20363;SDS011;10340;53.664;9.908;2023-02-01T07:05:27;14.63;;;2.90;;
20363;SDS011;10340;53.664;9.908;2023-02-01T07:07:54;14.63;;;3.10;;
20363;SDS011;10340;53.664;9.908;2023-02-01T07:10:21;10.77;;;3.03;;
20363;SDS011;10340;53.664;9.908;2023-02-01T07:12:48;14.37;;;2.87;;
20363;SDS011;10340;53.664;9.908;2023-02-01T07:15:16;18.33;;;4.10;;
20363;SDS011;10340;53.664;9.908;2023-02-01T07:17:43;14.33;;;2.93;;
20363;SDS011;10340;53.664;9.908;2023-02-01T07:20:12;10.00;;;3.30;;
20363;SDS011;10340;53.664;9.908;2023-02-01T07:22:39;14.53;;;3.33;;
20363;SDS011;10340;53.664;9.908;2023-02-01T07:25:06;13.57;;;3.57;;
20363;SDS011;10340;53.664;9.908;2023-02-01T07:27:33;11.00;;;3.87;;
20363;SDS011;10340;53.664;9.908;2023-02-01T07:30:01;15.23;;;3.40;;
20363;SDS011;10340;53.664;9.908;2023-02-01T07:32:29;15.90;;;3.57;;
20363;SDS011;10340;53.664;9.908;2023-02-01T07:34:57;10.63;;;3.90;;
20363;SDS011;10340;53.664;9.908;2023-02-01T07:37:24;13.97;;;3.40;;
20363;SDS011;10340;53.664;9.908;2023-02-01T07:39:51;11.97;;;2.77;;
20363;SDS011;10340;53.664;9.908;2023-02-01T07:42:18;11.30;;;3.10;;
20363;SDS011;10340;53.664;9.908;2023-02-01T07:44:45;9.37;;;3.57;;
20363;SDS011;10340;53.664;9.908;2023-02-01T07:47:12;8.50;;;3.20;;
20363;SDS011;10340;53.664;9.908;2023-02-01T07:49:40;11.23;;;3.57;;
20363;SDS011;10340;53.664;9.908;2023-02-01T07:52:07;15.90;;;3.60;;
20363;SDS011;10340;53.664;9.908;2023-02-01T07:54:36;9.80;;;3.50;;
20363;SDS011;10340;53.664;9.908;2023-02-01T07:57:03;17.20;;;4.07;;
20363;SDS011;10340;53.664;9.908;2023-02-01T07:59:30;17.70;;;3.83;;
20363;SDS011;10340;53.664;9.908;2023-02-01T08:01:57;13.57;;;3.57;;
20363;SDS011;10340;53.664;9.908;2023-02-01T08:04:22;22.50;;;5.20;;
20363;SDS011;10340;53.664;9.908;2023-02-01T08:06:51;20.90;;;4.20;;
20363;SDS011;10340;53.664;9.908;2023-02-01T08:09:18;18.63;;;4.20;;
20363;SDS011;10340;53.664;9.908;2023-02-01T08:11:45;21.60;;;4.40;;
20363;SDS011;10340;53.664;9.908;2023-02-01T08:14:12;18.17;;;4.40;;
20363;SDS011;10340;53.664;9.908;2023-02-01T08:16:39;11.97;;;3.17;;
20363;SDS011;10340;53.664;9.908;2023-02-01T08:19:06;19.33;;;3.97;;
20363;SDS011;10340;53.664;9.908;2023-02-01T08:21:33;13.60;;;3.80;;
20363;SDS011;10340;53.664;9.908;2023-02-01T08:24:08;20.03;;;3.57;;
20363;SDS011;10340;53.664;9.908;2023-02-01T08:26:36;11.70;;;3.83;;
20363;SDS011;10340;53.664;9.908;2023-02-01T08:29:03;15.80;;;3.83;;
20363;SDS011;10340;53.664;9.908;2023-02-01T08:31:32;11.73;;;3.60;;
20363;SDS011;10340;53.664;9.908;2023-02-01T08:34:00;17.13;;;4.00;;
20363;SDS011;10340;53.664;9.908;2023-02-01T08:36:29;12.37;;;2.87;;
20363;SDS011;10340;53.664;9.908;2023-02-01T08:38:57;9.97;;;2.73;;
20363;SDS011;10340;53.664;9.908;2023-02-01T08:41:26;8.20;;;3.00;;
20363;SDS011;10340;53.664;9.908;2023-02-01T08:43:55;10.20;;;2.50;;
20363;SDS011;10340;53.664;9.908;2023-02-01T08:46:23;7.23;;;2.73;;
20363;SDS011;10340;53.664;9.908;2023-02-01T08:48:50;5.43;;;2.00;;
20363;SDS011;10340;53.664;9.908;2023-02-01T08:51:19;6.90;;;2.30;;
20363;SDS011;10340;53.664;9.908;2023-02-01T08:53:48;7.40;;;1.97;;
20363;SDS011;10340;53.664;9.908;2023-02-01T08:56:15;7.20;;;2.53;;
20363;SDS011;10340;53.664;9.908;2023-02-01T08:58:44;12.00;;;1.97;;
20363;SDS011;10340;53.664;9.908;2023-02-01T09:01:13;6.60;;;2.23;;
20363;SDS011;10340;53.664;9.908;2023-02-01T09:03:41;9.97;;;3.20;;
20363;SDS011;10340;53.664;9.908;2023-02-01T09:06:09;11.23;;;2.83;;
20363;SDS011;10340;53.664;9.908;2023-02-01T09:08:38;10.30;;;2.70;;
20363;SDS011;10340;53.664;9.908;2023-02-01T09:11:09;13.60;;;2.90;;
20363;SDS011;10340;53.664;9.908;2023-02-01T09:13:57;16.70;;;3.40;;
20363;SDS011;10340;53.664;9.908;2023-02-01T09:16:27;13.47;;;3.37;;
20363;SDS011;10340;53.664;9.908;2023-02-01T09:19:05;11.90;;;3.07;;
20363;SDS011;10340;53.664;9.908;2023-02-01T09:21:34;16.13;;;3.53;;
20363;SDS011;10340;53.664;9.908;2023-02-01T09:24:11;14.40;;;2.90;;
20363;SDS011;10340;53.664;9.908;2023-02-01T09:26:41;16.13;;;3.60;;
20363;SDS011;10340;53.664;9.908;2023-02-01T09:29:15;12.30;;;2.93;;
20363;SDS011;10340;53.664;9.908;2023-02-01T09:31:54;12.57;;;3.63;;
20363;SDS011;10340;53.664;9.908;2023-02-01T09:34:37;12.17;;;2.90;;
20363;SDS011;10340;53.664;9.908;2023-02-01T09:37:12;9.60;;;2.70;;
20363;SDS011;10340;53.664;9.908;2023-02-01T09:39:41;18.60;;;4.53;;
20363;SDS011;10340;53.664;9.908;2023-02-01T09:42:19;17.85;;;4.72;;
20363;SDS011;10340;53.664;9.908;2023-02-01T09:45:09;16.77;;;3.43;;
20363;SDS011;10340;53.664;9.908;2023-02-01T09:47:48;13.93;;;6.00;;
20363;SDS011;10340;53.664;9.908;2023-02-01T09:50:28;11.33;;;3.10;;
20363;SDS011;10340;53.664;9.908;2023-02-01T09:53:12;15.27;;;3.92;;
20363;SDS011;10340;53.664;9.908;2023-02-01T09:55:53;11.97;;;3.07;;
20363;SDS011;10340;53.664;9.908;2023-02-01T09:58:51;16.47;;;3.03;;
20363;SDS011;10340;53.664;9.908;2023-02-01T10:01:42;16.90;;;3.30;;
20363;SDS011;10340;53.664;9.908;2023-02-01T10:06:53;13.37;;;3.17;;
20363;SDS011;10340;53.664;9.908;2023-02-01T10:09:29;11.93;;;4.37;;
20363;SDS011;10340;53.664;9.908;2023-02-01T10:12:20;18.03;;;3.93;;
20363;SDS011;10340;53.664;9.908;2023-02-01T10:15:21;16.57;;;4.00;;
20363;SDS011;10340;53.664;9.908;2023-02-01T10:18:03;15.23;;;4.33;;
20363;SDS011;10340;53.664;9.908;2023-02-01T10:20:44;13.43;;;4.10;;
20363;SDS011;10340;53.664;9.908;2023-02-01T10:23:25;12.27;;;3.10;;
20363;SDS011;10340;53.664;9.908;2023-02-01T10:26:05;15.23;;;4.30;;
20363;SDS011;10340;53.664;9.908;2023-02-01T10:28:38;14.33;;;3.40;;
20363;SDS011;10340;53.664;9.908;2023-02-01T10:31:07;10.77;;;2.97;;
20363;SDS011;10340;53.664;9.908;2023-02-01T10:33:39;12.87;;;2.97;;
20363;SDS011;10340;53.664;9.908;2023-02-01T10:36:12;21.02;;;3.90;;
20363;SDS011;10340;53.664;9.908;2023-02-01T10:38:42;18.10;;;3.23;;
20363;SDS011;10340;53.664;9.908;2023-02-01T10:41:12;14.40;;;3.60;;
20363;SDS011;10340;53.664;9.908;2023-02-01T10:43:41;10.03;;;3.30;;
20363;SDS011;10340;53.664;9.908;2023-02-01T10:46:09;16.70;;;3.57;;
20363;SDS011;10340;53.664;9.908;2023-02-01T10:48:38;16.20;;;3.63;;
20363;SDS011;10340;53.664;9.908;2023-02-01T10:51:06;12.63;;;3.37;;
20363;SDS011;10340;53.664;9.908;2023-02-01T10:53:39;14.70;;;3.43;;
20363;SDS011;10340;53.664;9.908;2023-02-01T10:56:10;9.57;;;3.40;;
20363;SDS011;10340;53.664;9.908;2023-02-01T10:58:42;14.67;;;3.47;;
20363;SDS011;10340;53.664;9.908;2023-02-01T11:01:15;12.80;;;2.90;;
20363;SDS011;10340;53.664;9.908;2023-02-01T11:03:45;10.40;;;2.47;;
20363;SDS011;10340;53.664;9.908;2023-02-01T11:06:22;14.83;;;3.00;;
20363;SDS011;10340;53.664;9.908;2023-02-01T11:08:53;11.27;;;2.67;;
20363;SDS011;10340;53.664;9.908;2023-02-01T11:11:22;12.50;;;2.13;;
20363;SDS011;10340;53.664;9.908;2023-02-01T11:13:54;7.93;;;2.53;;
20363;SDS011;10340;53.664;9.908;2023-02-01T11:16:28;12.13;;;3.10;;
20363;SDS011;10340;53.664;9.908;2023-02-01T11:19:00;8.27;;;3.97;;
20363;SDS011;10340;53.664;9.908;2023-02-01T11:21:27;8.40;;;2.93;;
20363;SDS011;10340;53.664;9.908;2023-02-01T11:23:54;14.40;;;3.33;;
20363;SDS011;10340;53.664;9.908;2023-02-01T11:26:22;17.83;;;3.40;;
20363;SDS011;10340;53.664;9.908;2023-02-01T11:28:52;16.17;;;3.00;;
20363;SDS011;10340;53.664;9.908;2023-02-01T11:31:24;11.63;;;2.90;;
20363;SDS011;10340;53.664;9.908;2023-02-01T11:33:52;14.20;;;3.10;;
20363;SDS011;10340;53.664;9.908;2023-02-01T11:36:26;12.40;;;2.97;;
20363;SDS011;10340;53.664;9.908;2023-02-01T11:38:55;12.57;;;2.93;;
20363;SDS011;10340;53.664;9.908;2023-02-01T11:41:40;11.03;;;2.70;;
20363;SDS011;10340;53.664;9.908;2023-02-01T11:44:16;15.87;;;2.97;;
20363;SDS011;10340;53.664;9.908;2023-02-01T11:46:48;15.27;;;3.30;;
20363;SDS011;10340;53.664;9.908;2023-02-01T11:49:19;10.23;;;2.53;;
20363;SDS011;10340;53.664;9.908;2023-02-01T11:51:52;8.57;;;2.80;;
20363;SDS011;10340;53.664;9.908;2023-02-01T11:57:23;11.17;;;3.20;;
20363;SDS011;10340;53.664;9.908;2023-02-01T12:00:06;8.10;;;2.77;;
20363;SDS011;10340;53.664;9.908;2023-02-01T12:02:57;8.00;;;2.23;;
20363;SDS011;10340;53.664;9.908;2023-02-01T12:05:48;14.07;;;2.73;;
20363;SDS011;10340;53.664;9.908;2023-02-01T12:08:26;9.87;;;2.47;;
20363;SDS011;10340;53.664;9.908;2023-02-01T12:11:13;10.93;;;3.50;;
20363;SDS011;10340;53.664;9.908;2023-02-01T12:13:55;9.97;;;2.73;;
20363;SDS011;10340;53.664;9.908;2023-02-01T12:16:35;14.67;;;3.10;;
20363;SDS011;10340;53.664;9.908;2023-02-01T12:19:20;11.87;;;4.00;;
20363;SDS011;10340;53.664;9.908;2023-02-01T12:22:05;13.97;;;2.43;;
20363;SDS011;10340;53.664;9.908;2023-02-01T12:24:52;9.03;;;3.00;;
20363;SDS011;10340;53.664;9.908;2023-02-01T12:33:31;3.67;;;1.57;;
20363;SDS011;10340;53.664;9.908;2023-02-01T12:36:08;4.93;;;1.30;;
20363;SDS011;10340;53.664;9.908;2023-02-01T12:38:49;2.20;;;1.20;;
20363;SDS011;10340;53.664;9.908;2023-02-01T12:41:24;4.10;;;1.20;;
20363;SDS011;10340;53.664;9.908;2023-02-01T12:44:04;4.07;;;0.90;;
20363;SDS011;10340;53.664;9.908;2023-02-01T12:46:39;1.67;;;0.90;;
20363;SDS011;10340;53.664;9.908;2023-02-01T12:49:10;2.07;;;1.00;;
20363;SDS011;10340;53.664;9.908;2023-02-01T12:51:42;1.10;;;0.77;;
20363;SDS011;10340;53.664;9.908;2023-02-01T12:54:12;3.40;;;0.90;;
20363;SDS011;10340;53.664;9.908;2023-02-01T12:56:46;3.57;;;1.30;;
20363;SDS011;10340;53.664;9.908;2023-02-01T12:59:18;2.50;;;0.90;;
20363;SDS011;10340;53.664;9.908;2023-02-01T13:01:51;0.77;;;0.77;;
20363;SDS011;10340;53.664;9.908;2023-02-01T13:04:26;0.90;;;0.90;;
20363;SDS011;10340;53.664;9.908;2023-02-01T13:07:00;1.10;;;0.90;;
20363;SDS011;10340;53.664;9.908;2023-02-01T13:09:36;2.83;;;0.80;;
20363;SDS011;10340;53.664;9.908;2023-02-01T13:12:10;2.10;;;0.70;;
20363;SDS011;10340;53.664;9.908;2023-02-01T13:14:41;1.03;;;0.70;;
20363;SDS011;10340;53.664;9.908;2023-02-01T13:17:14;0.83;;;0.80;;
20363;SDS011;10340;53.664;9.908;2023-02-01T13:19:44;1.23;;;1.00;;
20363;SDS011;10340;53.664;9.908;2023-02-01T13:22:16;5.40;;;0.90;;
20363;SDS011;10340;53.664;9.908;2023-02-01T13:24:46;0.60;;;0.60;;
20363;SDS011;10340;53.664;9.908;2023-02-01T13:27:18;2.40;;;0.70;;
20363;SDS011;10340;53.664;9.908;2023-02-01T13:29:47;0.83;;;0.83;;
20363;SDS011;10340;53.664;9.908;2023-02-01T13:32:28;1.73;;;0.77;;
20363;SDS011;10340;53.664;9.908;2023-02-01T13:35:27;2.83;;;0.67;;
20363;SDS011;10340;53.664;9.908;2023-02-01T13:41:32;2.93;;;0.80;;
20363;SDS011;10340;53.664;9.908;2023-02-01T13:44:10;3.23;;;0.97;;
20363;SDS011;10340;53.664;9.908;2023-02-01T13:46:44;2.27;;;1.00;;
20363;SDS011;10340;53.664;9.908;2023-02-01T13:49:18;4.00;;;1.10;;
20363;SDS011;10340;53.664;9.908;2023-02-01T13:51:48;3.57;;;1.10;;
20363;SDS011;10340;53.664;9.908;2023-02-01T13:54:25;3.13;;;0.90;;
20363;SDS011;10340;53.664;9.908;2023-02-01T13:56:54;1.93;;;1.03;;
20363;SDS011;10340;53.664;9.908;2023-02-01T14:02:59;3.93;;;1.67;;
20363;SDS011;10340;53.664;9.908;2023-02-01T14:05:57;1.90;;;1.00;;
20363;SDS011;10340;53.664;9.908;2023-02-01T14:09:19;2.43;;;1.10;;
20363;SDS011;10340;53.664;9.908;2023-02-01T14:17:48;3.63;;;1.40;;
20363;SDS011;10340;53.664;9.908;2023-02-01T14:23:29;3.67;;;1.60;;
20363;SDS011;10340;53.664;9.908;2023-02-01T14:26:10;6.07;;;1.50;;
20363;SDS011;10340;53.664;9.908;2023-02-01T14:28:49;5.60;;;1.53;;
20363;SDS011;10340;53.664;9.908;2023-02-01T14:31:37;5.40;;;1.50;;
20363;SDS011;10340;53.664;9.908;2023-02-01T14:34:20;4.97;;;1.70;;
20363;SDS011;10340;53.664;9.908;2023-02-01T14:37:01;4.80;;;1.37;;
20363;SDS011;10340;53.664;9.908;2023-02-01T14:39:35;5.33;;;1.50;;
20363;SDS011;10340;53.664;9.908;2023-02-01T14:42:20;5.83;;;1.30;;
20363;SDS011;10340;53.664;9.908;2023-02-01T14:44:51;2.80;;;1.07;;
20363;SDS011;10340;53.664;9.908;2023-02-01T14:47:30;3.87;;;1.30;;
20363;SDS011;10340;53.664;9.908;2023-02-01T14:53:18;1.83;;;0.90;;
20363;SDS011;10340;53.664;9.908;2023-02-01T14:55:49;3.13;;;1.40;;
20363;SDS011;10340;53.664;9.908;2023-02-01T14:58:20;5.93;;;1.17;;
20363;SDS011;10340;53.664;9.908;2023-02-01T15:00:59;5.33;;;1.57;;
20363;SDS011;10340;53.664;9.908;2023-02-01T15:06:27;3.13;;;1.10;;
20363;SDS011;10340;53.664;9.908;2023-02-01T15:08:58;5.40;;;1.47;;
20363;SDS011;10340;53.664;9.908;2023-02-01T15:11:28;6.33;;;1.80;;
20363;SDS011;10340;53.664;9.908;2023-02-01T15:13:55;7.43;;;1.33;;
20363;SDS011;10340;53.664;9.908;2023-02-01T15:16:23;3.80;;;1.70;;
20363;SDS011;10340;53.664;9.908;2023-02-01T15:21:46;8.60;;;2.37;;
20363;SDS011;10340;53.664;9.908;2023-02-01T15:24:18;7.93;;;2.40;;
20363;SDS011;10340;53.664;9.908;2023-02-01T15:26:47;8.57;;;1.87;;
20363;SDS011;10340;53.664;9.908;2023-02-01T15:29:14;9.60;;;1.87;;
20363;SDS011;10340;53.664;9.908;2023-02-01T15:31:52;10.70;;;2.40;;
20363;SDS011;10340;53.664;9.908;2023-02-01T15:34:20;7.37;;;2.10;;
20363;SDS011;10340;53.664;9.908;2023-02-01T15:36:48;7.77;;;2.37;;
20363;SDS011;10340;53.664;9.908;2023-02-01T15:39:20;5.60;;;2.00;;
20363;SDS011;10340;53.664;9.908;2023-02-01T15:41:51;9.53;;;2.20;;
20363;SDS011;10340;53.664;9.908;2023-02-01T15:44:22;9.63;;;2.27;;
20363;SDS011;10340;53.664;9.908;2023-02-01T15:46:56;13.97;;;2.37;;
20363;SDS011;10340;53.664;9.908;2023-02-01T15:49:25;9.70;;;2.13;;
20363;SDS011;10340;53.664;9.908;2023-02-01T15:51:56;11.70;;;2.40;;
20363;SDS011;10340;53.664;9.908;2023-02-01T15:54:26;11.97;;;2.50;;